sensor_id;sensor_type;location;lat;lon;timestamp;P1;durP1;ratioP1;P2;durP2;ratioP2
1206;SDS011;593;53.184;8.216;2022-10-15T00:00:20;18.23;;;14.00;;
1206;SDS011;593;53.184;8.216;2022-10-15T00:02:45;18.63;;;12.90;;
1206;SDS011;593;53.184;8.216;2022-10-15T00:05:11;19.70;;;13.10;;
1206;SDS011;593;53.184;8.216;2022-10-15T00:07:36;18.10;;;13.80;;
1206;SDS011;593;53.184;8.216;2022-10-15T00:10:01;17.80;;;13.00;;
1206;SDS011;593;53.184;8.216;2022-10-15T00:12:27;20.20;;;14.00;;
1206;SDS011;593;53.184;8.216;2022-10-15T00:14:53;19.30;;;14.27;;
1206;SDS011;593;53.184;8.216;2022-10-15T00:17:18;18.20;;;12.23;;
1206;SDS011;593;53.184;8.216;2022-10-15T00:19:43;19.10;;;13.37;;
1206;SDS011;593;53.184;8.216;2022-10-15T00:22:09;18.33;;;13.20;;
1206;SDS011;593;53.184;8.216;2022-10-15T00:24:35;18.60;;;13.03;;
1206;SDS011;593;53.184;8.216;2022-10-15T00:27:00;19.13;;;13.60;;
1206;SDS011;593;53.184;8.216;2022-10-15T00:29:26;21.10;;;13.33;;
1206;SDS011;593;53.184;8.216;2022-10-15T00:31:51;21.63;;;14.37;;
1206;SDS011;593;53.184;8.216;2022-10-15T00:34:16;20.87;;;14.00;;
1206;SDS011;593;53.184;8.216;2022-10-15T00:36:42;23.03;;;14.77;;
1206;SDS011;593;53.184;8.216;2022-10-15T00:39:07;16.53;;;12.30;;
1206;SDS011;593;53.184;8.216;2022-10-15T00:41:34;19.80;;;15.10;;
1206;SDS011;593;53.184;8.216;2022-10-15T00:44:42;18.90;;;14.07;;
1206;SDS011;593;53.184;8.216;2022-10-15T00:49:34;22.70;;;15.13;;
1206;SDS011;593;53.184;8.216;2022-10-15T00:52:15;23.17;;;13.97;;
1206;SDS011;593;53.184;8.216;2022-10-15T00:54:44;19.70;;;12.87;;
1206;SDS011;593;53.184;8.216;2022-10-15T00:57:13;22.70;;;15.00;;
1206;SDS011;593;53.184;8.216;2022-10-15T00:59:42;22.43;;;14.33;;
1206;SDS011;593;53.184;8.216;2022-10-15T01:02:12;29.17;;;15.57;;
1206;SDS011;593;53.184;8.216;2022-10-15T01:04:37;24.63;;;18.40;;
1206;SDS011;593;53.184;8.216;2022-10-15T01:07:05;21.80;;;16.63;;
1206;SDS011;593;53.184;8.216;2022-10-15T01:09:32;23.37;;;15.83;;
1206;SDS011;593;53.184;8.216;2022-10-15T01:11:57;28.23;;;17.27;;
1206;SDS011;593;53.184;8.216;2022-10-15T01:14:45;25.80;;;17.53;;
1206;SDS011;593;53.184;8.216;2022-10-15T01:23:27;31.27;;;20.07;;
1206;SDS011;593;53.184;8.216;2022-10-15T01:26:12;26.37;;;17.27;;
1206;SDS011;593;53.184;8.216;2022-10-15T01:28:46;30.80;;;19.63;;
1206;SDS011;593;53.184;8.216;2022-10-15T01:31:23;31.00;;;19.03;;
1206;SDS011;593;53.184;8.216;2022-10-15T01:34:13;25.27;;;16.87;;
1206;SDS011;593;53.184;8.216;2022-10-15T01:37:08;27.00;;;17.17;;
1206;SDS011;593;53.184;8.216;2022-10-15T01:39:47;32.50;;;17.73;;
1206;SDS011;593;53.184;8.216;2022-10-15T01:42:17;34.27;;;19.53;;
1206;SDS011;593;53.184;8.216;2022-10-15T01:44:53;33.90;;;18.97;;
1206;SDS011;593;53.184;8.216;2022-10-15T01:47:23;29.03;;;18.67;;
1206;SDS011;593;53.184;8.216;2022-10-15T01:49:58;32.20;;;19.27;;
1206;SDS011;593;53.184;8.216;2022-10-15T01:52:28;29.23;;;18.33;;
1206;SDS011;593;53.184;8.216;2022-10-15T01:54:56;34.03;;;20.23;;
1206;SDS011;593;53.184;8.216;2022-10-15T01:57:23;34.53;;;18.87;;
1206;SDS011;593;53.184;8.216;2022-10-15T01:59:51;33.27;;;20.83;;
1206;SDS011;593;53.184;8.216;2022-10-15T02:02:18;32.57;;;18.80;;
1206;SDS011;593;53.184;8.216;2022-10-15T02:04:43;34.43;;;20.00;;
1206;SDS011;593;53.184;8.216;2022-10-15T02:07:22;33.47;;;19.37;;
1206;SDS011;593;53.184;8.216;2022-10-15T02:13:13;40.30;;;21.33;;
1206;SDS011;593;53.184;8.216;2022-10-15T02:16:02;39.60;;;20.70;;
1206;SDS011;593;53.184;8.216;2022-10-15T02:18:41;34.40;;;19.23;;
1206;SDS011;593;53.184;8.216;2022-10-15T02:21:15;32.30;;;20.83;;
1206;SDS011;593;53.184;8.216;2022-10-15T02:23:52;33.07;;;18.10;;
1206;SDS011;593;53.184;8.216;2022-10-15T02:26:22;33.43;;;18.33;;
1206;SDS011;593;53.184;8.216;2022-10-15T02:28:51;40.37;;;19.37;;
1206;SDS011;593;53.184;8.216;2022-10-15T02:31:20;34.70;;;19.37;;
1206;SDS011;593;53.184;8.216;2022-10-15T02:33:47;34.93;;;19.43;;
1206;SDS011;593;53.184;8.216;2022-10-15T02:36:15;35.97;;;19.70;;
1206;SDS011;593;53.184;8.216;2022-10-15T02:38:42;35.00;;;18.20;;
1206;SDS011;593;53.184;8.216;2022-10-15T02:41:09;37.47;;;20.27;;
1206;SDS011;593;53.184;8.216;2022-10-15T02:43:35;35.90;;;20.10;;
1206;SDS011;593;53.184;8.216;2022-10-15T02:46:01;39.90;;;21.70;;
1206;SDS011;593;53.184;8.216;2022-10-15T02:48:27;37.03;;;18.67;;
1206;SDS011;593;53.184;8.216;2022-10-15T02:50:53;39.63;;;21.30;;
1206;SDS011;593;53.184;8.216;2022-10-15T02:53:18;39.67;;;20.90;;
1206;SDS011;593;53.184;8.216;2022-10-15T02:55:43;31.60;;;18.93;;
1206;SDS011;593;53.184;8.216;2022-10-15T02:58:10;41.37;;;21.00;;
1206;SDS011;593;53.184;8.216;2022-10-15T03:00:36;41.67;;;20.87;;
1206;SDS011;593;53.184;8.216;2022-10-15T03:03:02;38.30;;;20.80;;
1206;SDS011;593;53.184;8.216;2022-10-15T03:05:27;40.90;;;21.90;;
1206;SDS011;593;53.184;8.216;2022-10-15T03:07:52;38.20;;;21.87;;
1206;SDS011;593;53.184;8.216;2022-10-15T03:10:18;50.57;;;23.27;;
1206;SDS011;593;53.184;8.216;2022-10-15T03:12:43;45.13;;;22.10;;
1206;SDS011;593;53.184;8.216;2022-10-15T03:15:09;38.03;;;21.30;;
1206;SDS011;593;53.184;8.216;2022-10-15T03:17:34;38.73;;;20.23;;
1206;SDS011;593;53.184;8.216;2022-10-15T03:20:00;37.90;;;20.97;;
1206;SDS011;593;53.184;8.216;2022-10-15T03:22:25;38.80;;;20.67;;
1206;SDS011;593;53.184;8.216;2022-10-15T03:24:50;36.73;;;20.40;;
1206;SDS011;593;53.184;8.216;2022-10-15T03:27:16;39.80;;;20.60;;
1206;SDS011;593;53.184;8.216;2022-10-15T03:29:41;36.83;;;19.67;;
1206;SDS011;593;53.184;8.216;2022-10-15T03:32:06;35.80;;;20.47;;
1206;SDS011;593;53.184;8.216;2022-10-15T03:34:32;38.80;;;19.87;;
1206;SDS011;593;53.184;8.216;2022-10-15T03:36:57;40.53;;;21.97;;
1206;SDS011;593;53.184;8.216;2022-10-15T03:39:23;36.63;;;20.17;;
1206;SDS011;593;53.184;8.216;2022-10-15T03:41:50;36.00;;;19.90;;
1206;SDS011;593;53.184;8.216;2022-10-15T03:44:16;43.13;;;21.50;;
1206;SDS011;593;53.184;8.216;2022-10-15T03:46:42;34.60;;;21.50;;
1206;SDS011;593;53.184;8.216;2022-10-15T03:49:07;43.80;;;23.20;;
1206;SDS011;593;53.184;8.216;2022-10-15T03:51:32;45.80;;;22.03;;
1206;SDS011;593;53.184;8.216;2022-10-15T03:53:58;45.80;;;22.10;;
1206;SDS011;593;53.184;8.216;2022-10-15T03:56:23;36.97;;;20.90;;
1206;SDS011;593;53.184;8.216;2022-10-15T03:58:48;37.37;;;20.43;;
1206;SDS011;593;53.184;8.216;2022-10-15T04:01:15;37.73;;;21.03;;
1206;SDS011;593;53.184;8.216;2022-10-15T04:03:41;36.40;;;19.80;;
1206;SDS011;593;53.184;8.216;2022-10-15T04:06:08;36.03;;;20.00;;
1206;SDS011;593;53.184;8.216;2022-10-15T04:08:33;31.03;;;17.60;;
1206;SDS011;593;53.184;8.216;2022-10-15T04:10:59;34.47;;;19.87;;
1206;SDS011;593;53.184;8.216;2022-10-15T04:13:25;38.63;;;19.43;;
1206;SDS011;593;53.184;8.216;2022-10-15T04:15:51;37.53;;;21.07;;
1206;SDS011;593;53.184;8.216;2022-10-15T04:18:16;39.90;;;21.20;;
1206;SDS011;593;53.184;8.216;2022-10-15T04:20:44;31.57;;;18.87;;
1206;SDS011;593;53.184;8.216;2022-10-15T04:23:09;33.20;;;18.03;;
1206;SDS011;593;53.184;8.216;2022-10-15T04:25:35;39.70;;;19.60;;
1206;SDS011;593;53.184;8.216;2022-10-15T04:28:01;39.13;;;22.10;;
1206;SDS011;593;53.184;8.216;2022-10-15T04:30:26;33.57;;;19.37;;
1206;SDS011;593;53.184;8.216;2022-10-15T04:32:52;35.23;;;18.97;;
1206;SDS011;593;53.184;8.216;2022-10-15T04:35:17;37.70;;;20.43;;
1206;SDS011;593;53.184;8.216;2022-10-15T04:37:43;35.30;;;17.60;;
1206;SDS011;593;53.184;8.216;2022-10-15T04:40:08;37.80;;;20.00;;
1206;SDS011;593;53.184;8.216;2022-10-15T04:42:34;33.60;;;18.07;;
1206;SDS011;593;53.184;8.216;2022-10-15T04:44:59;34.40;;;18.43;;
1206;SDS011;593;53.184;8.216;2022-10-15T04:47:25;39.60;;;20.83;;
1206;SDS011;593;53.184;8.216;2022-10-15T04:49:50;41.10;;;21.17;;
1206;SDS011;593;53.184;8.216;2022-10-15T04:52:15;35.17;;;18.43;;
1206;SDS011;593;53.184;8.216;2022-10-15T04:54:41;41.40;;;20.47;;
1206;SDS011;593;53.184;8.216;2022-10-15T04:57:06;35.57;;;18.73;;
1206;SDS011;593;53.184;8.216;2022-10-15T04:59:31;36.37;;;19.37;;
1206;SDS011;593;53.184;8.216;2022-10-15T05:01:57;41.00;;;23.10;;
1206;SDS011;593;53.184;8.216;2022-10-15T05:04:22;34.40;;;18.70;;
1206;SDS011;593;53.184;8.216;2022-10-15T05:06:48;40.97;;;20.30;;
1206;SDS011;593;53.184;8.216;2022-10-15T05:09:13;38.53;;;19.20;;
1206;SDS011;593;53.184;8.216;2022-10-15T05:11:38;40.30;;;19.17;;
1206;SDS011;593;53.184;8.216;2022-10-15T05:14:04;39.57;;;21.00;;
1206;SDS011;593;53.184;8.216;2022-10-15T05:16:30;35.17;;;19.83;;
1206;SDS011;593;53.184;8.216;2022-10-15T05:18:57;40.40;;;20.90;;
1206;SDS011;593;53.184;8.216;2022-10-15T05:21:24;39.67;;;19.57;;
1206;SDS011;593;53.184;8.216;2022-10-15T05:23:51;49.13;;;21.97;;
1206;SDS011;593;53.184;8.216;2022-10-15T05:26:17;35.47;;;18.60;;
1206;SDS011;593;53.184;8.216;2022-10-15T05:28:45;40.43;;;20.00;;
1206;SDS011;593;53.184;8.216;2022-10-15T05:31:11;36.60;;;19.37;;
1206;SDS011;593;53.184;8.216;2022-10-15T05:33:41;35.33;;;18.20;;
1206;SDS011;593;53.184;8.216;2022-10-15T05:36:17;41.53;;;19.57;;
1206;SDS011;593;53.184;8.216;2022-10-15T05:38:46;42.07;;;19.47;;
1206;SDS011;593;53.184;8.216;2022-10-15T05:41:13;38.60;;;19.23;;
1206;SDS011;593;53.184;8.216;2022-10-15T05:43:39;41.83;;;19.77;;
1206;SDS011;593;53.184;8.216;2022-10-15T05:46:04;37.47;;;19.40;;
1206;SDS011;593;53.184;8.216;2022-10-15T05:48:30;44.57;;;20.67;;
1206;SDS011;593;53.184;8.216;2022-10-15T05:51:03;39.27;;;18.97;;
1206;SDS011;593;53.184;8.216;2022-10-15T05:53:29;36.13;;;18.43;;
1206;SDS011;593;53.184;8.216;2022-10-15T05:55:55;40.30;;;19.40;;
1206;SDS011;593;53.184;8.216;2022-10-15T05:58:23;41.17;;;20.10;;
1206;SDS011;593;53.184;8.216;2022-10-15T06:00:53;38.70;;;19.07;;
1206;SDS011;593;53.184;8.216;2022-10-15T06:03:18;36.07;;;18.23;;
1206;SDS011;593;53.184;8.216;2022-10-15T06:05:44;43.60;;;20.67;;
1206;SDS011;593;53.184;8.216;2022-10-15T06:08:09;39.43;;;20.37;;
1206;SDS011;593;53.184;8.216;2022-10-15T06:10:35;40.60;;;19.40;;
1206;SDS011;593;53.184;8.216;2022-10-15T06:13:01;36.93;;;19.30;;
1206;SDS011;593;53.184;8.216;2022-10-15T06:15:27;38.33;;;20.33;;
1206;SDS011;593;53.184;8.216;2022-10-15T06:17:53;37.97;;;19.93;;
1206;SDS011;593;53.184;8.216;2022-10-15T06:20:18;38.80;;;19.10;;
1206;SDS011;593;53.184;8.216;2022-10-15T06:22:43;43.10;;;21.33;;
1206;SDS011;593;53.184;8.216;2022-10-15T06:25:09;44.50;;;20.37;;
1206;SDS011;593;53.184;8.216;2022-10-15T06:27:34;39.53;;;20.80;;
1206;SDS011;593;53.184;8.216;2022-10-15T06:29:59;38.57;;;20.43;;
1206;SDS011;593;53.184;8.216;2022-10-15T06:32:25;38.10;;;19.20;;
1206;SDS011;593;53.184;8.216;2022-10-15T06:34:50;39.67;;;21.60;;
1206;SDS011;593;53.184;8.216;2022-10-15T06:37:15;45.00;;;20.80;;
1206;SDS011;593;53.184;8.216;2022-10-15T06:39:41;35.83;;;19.80;;
1206;SDS011;593;53.184;8.216;2022-10-15T06:42:06;37.03;;;19.30;;
1206;SDS011;593;53.184;8.216;2022-10-15T06:44:31;39.10;;;19.87;;
1206;SDS011;593;53.184;8.216;2022-10-15T06:46:56;40.13;;;21.33;;
1206;SDS011;593;53.184;8.216;2022-10-15T06:49:22;40.07;;;20.00;;
1206;SDS011;593;53.184;8.216;2022-10-15T06:51:48;37.90;;;18.57;;
1206;SDS011;593;53.184;8.216;2022-10-15T06:54:13;40.33;;;20.07;;
1206;SDS011;593;53.184;8.216;2022-10-15T06:56:39;39.70;;;19.03;;
1206;SDS011;593;53.184;8.216;2022-10-15T06:59:04;37.87;;;19.03;;
1206;SDS011;593;53.184;8.216;2022-10-15T07:01:29;33.77;;;19.40;;
1206;SDS011;593;53.184;8.216;2022-10-15T07:03:54;33.00;;;18.80;;
1206;SDS011;593;53.184;8.216;2022-10-15T07:06:20;31.30;;;17.90;;
1206;SDS011;593;53.184;8.216;2022-10-15T07:08:45;39.73;;;19.60;;
1206;SDS011;593;53.184;8.216;2022-10-15T07:11:11;35.50;;;19.30;;
1206;SDS011;593;53.184;8.216;2022-10-15T07:13:36;38.57;;;18.60;;
1206;SDS011;593;53.184;8.216;2022-10-15T07:16:03;31.37;;;17.80;;
1206;SDS011;593;53.184;8.216;2022-10-15T07:18:29;34.07;;;20.40;;
1206;SDS011;593;53.184;8.216;2022-10-15T07:20:55;42.50;;;22.37;;
1206;SDS011;593;53.184;8.216;2022-10-15T07:23:21;36.03;;;18.47;;
1206;SDS011;593;53.184;8.216;2022-10-15T07:25:46;31.53;;;18.07;;
1206;SDS011;593;53.184;8.216;2022-10-15T07:28:11;37.90;;;21.57;;
1206;SDS011;593;53.184;8.216;2022-10-15T07:30:37;36.00;;;18.40;;
1206;SDS011;593;53.184;8.216;2022-10-15T07:33:02;37.27;;;21.07;;
1206;SDS011;593;53.184;8.216;2022-10-15T07:35:28;38.57;;;20.07;;
1206;SDS011;593;53.184;8.216;2022-10-15T07:37:53;35.83;;;18.67;;
1206;SDS011;593;53.184;8.216;2022-10-15T07:40:19;37.47;;;18.47;;
1206;SDS011;593;53.184;8.216;2022-10-15T07:42:45;36.43;;;18.70;;
1206;SDS011;593;53.184;8.216;2022-10-15T07:45:16;35.00;;;17.60;;
1206;SDS011;593;53.184;8.216;2022-10-15T07:47:41;32.30;;;17.77;;
1206;SDS011;593;53.184;8.216;2022-10-15T07:50:07;36.57;;;16.07;;
1206;SDS011;593;53.184;8.216;2022-10-15T07:52:32;34.43;;;18.60;;
1206;SDS011;593;53.184;8.216;2022-10-15T07:54:58;36.70;;;18.53;;
1206;SDS011;593;53.184;8.216;2022-10-15T07:57:23;31.07;;;18.67;;
1206;SDS011;593;53.184;8.216;2022-10-15T07:59:48;35.67;;;19.57;;
1206;SDS011;593;53.184;8.216;2022-10-15T08:02:17;34.40;;;19.30;;
1206;SDS011;593;53.184;8.216;2022-10-15T08:04:43;31.90;;;18.53;;
1206;SDS011;593;53.184;8.216;2022-10-15T08:07:08;30.10;;;17.73;;
1206;SDS011;593;53.184;8.216;2022-10-15T08:09:34;34.90;;;19.73;;
1206;SDS011;593;53.184;8.216;2022-10-15T08:11:59;30.70;;;16.93;;
1206;SDS011;593;53.184;8.216;2022-10-15T08:14:24;39.93;;;21.50;;
1206;SDS011;593;53.184;8.216;2022-10-15T08:16:50;35.83;;;21.30;;
1206;SDS011;593;53.184;8.216;2022-10-15T08:19:15;34.73;;;20.10;;
1206;SDS011;593;53.184;8.216;2022-10-15T08:21:42;37.43;;;20.53;;
1206;SDS011;593;53.184;8.216;2022-10-15T08:24:08;32.40;;;19.60;;
1206;SDS011;593;53.184;8.216;2022-10-15T08:26:34;34.27;;;22.40;;
1206;SDS011;593;53.184;8.216;2022-10-15T08:28:59;32.40;;;20.47;;
1206;SDS011;593;53.184;8.216;2022-10-15T08:31:25;37.27;;;21.77;;
1206;SDS011;593;53.184;8.216;2022-10-15T08:33:51;32.47;;;22.07;;
1206;SDS011;593;53.184;8.216;2022-10-15T08:36:17;34.40;;;21.40;;
1206;SDS011;593;53.184;8.216;2022-10-15T08:38:42;35.97;;;21.20;;
1206;SDS011;593;53.184;8.216;2022-10-15T08:41:15;33.13;;;19.80;;
1206;SDS011;593;53.184;8.216;2022-10-15T08:43:45;38.10;;;22.50;;
1206;SDS011;593;53.184;8.216;2022-10-15T08:46:13;31.97;;;19.70;;
1206;SDS011;593;53.184;8.216;2022-10-15T08:48:47;37.23;;;21.47;;
1206;SDS011;593;53.184;8.216;2022-10-15T08:51:16;33.17;;;19.67;;
1206;SDS011;593;53.184;8.216;2022-10-15T08:53:46;33.93;;;21.40;;
1206;SDS011;593;53.184;8.216;2022-10-15T08:56:16;36.20;;;21.57;;
1206;SDS011;593;53.184;8.216;2022-10-15T08:58:50;40.00;;;22.13;;
1206;SDS011;593;53.184;8.216;2022-10-15T09:01:39;41.87;;;22.00;;
1206;SDS011;593;53.184;8.216;2022-10-15T09:06:56;39.33;;;19.97;;
1206;SDS011;593;53.184;8.216;2022-10-15T09:15:11;37.10;;;21.37;;
1206;SDS011;593;53.184;8.216;2022-10-15T09:17:41;37.00;;;20.60;;
1206;SDS011;593;53.184;8.216;2022-10-15T09:20:12;41.40;;;21.97;;
1206;SDS011;593;53.184;8.216;2022-10-15T09:22:41;38.27;;;22.70;;
1206;SDS011;593;53.184;8.216;2022-10-15T09:25:29;37.87;;;21.77;;
1206;SDS011;593;53.184;8.216;2022-10-15T09:28:07;39.00;;;20.10;;
1206;SDS011;593;53.184;8.216;2022-10-15T09:33:28;41.60;;;22.40;;
1206;SDS011;593;53.184;8.216;2022-10-15T09:39:06;39.13;;;23.13;;
1206;SDS011;593;53.184;8.216;2022-10-15T09:44:33;35.20;;;21.53;;
1206;SDS011;593;53.184;8.216;2022-10-15T09:47:09;37.13;;;22.10;;
1206;SDS011;593;53.184;8.216;2022-10-15T09:49:46;40.23;;;24.13;;
1206;SDS011;593;53.184;8.216;2022-10-15T09:55:03;44.67;;;24.80;;
1206;SDS011;593;53.184;8.216;2022-10-15T09:57:30;38.13;;;22.20;;
1206;SDS011;593;53.184;8.216;2022-10-15T09:59:59;36.50;;;24.20;;
1206;SDS011;593;53.184;8.216;2022-10-15T10:02:26;38.57;;;24.87;;
1206;SDS011;593;53.184;8.216;2022-10-15T10:04:53;37.27;;;23.93;;
1206;SDS011;593;53.184;8.216;2022-10-15T10:07:29;46.97;;;25.33;;
1206;SDS011;593;53.184;8.216;2022-10-15T10:09:59;37.57;;;22.87;;
1206;SDS011;593;53.184;8.216;2022-10-15T10:12:28;33.37;;;21.30;;
1206;SDS011;593;53.184;8.216;2022-10-15T10:14:58;34.50;;;22.87;;
1206;SDS011;593;53.184;8.216;2022-10-15T10:17:30;33.33;;;22.93;;
1206;SDS011;593;53.184;8.216;2022-10-15T10:20:29;32.03;;;21.23;;
1206;SDS011;593;53.184;8.216;2022-10-15T10:22:53;33.90;;;21.27;;
1206;SDS011;593;53.184;8.216;2022-10-15T10:25:30;33.43;;;22.20;;
1206;SDS011;593;53.184;8.216;2022-10-15T10:28:02;32.13;;;22.40;;
1206;SDS011;593;53.184;8.216;2022-10-15T10:33:23;31.23;;;20.27;;
1206;SDS011;593;53.184;8.216;2022-10-15T10:35:51;31.13;;;20.73;;
1206;SDS011;593;53.184;8.216;2022-10-15T10:38:21;33.00;;;21.67;;
1206;SDS011;593;53.184;8.216;2022-10-15T10:40:49;31.53;;;19.70;;
1206;SDS011;593;53.184;8.216;2022-10-15T10:45:54;27.43;;;19.17;;
1206;SDS011;593;53.184;8.216;2022-10-15T10:48:23;27.63;;;19.77;;
1206;SDS011;593;53.184;8.216;2022-10-15T10:51:04;27.80;;;18.43;;
1206;SDS011;593;53.184;8.216;2022-10-15T10:54:00;27.60;;;19.20;;
1206;SDS011;593;53.184;8.216;2022-10-15T10:56:34;27.60;;;18.03;;
1206;SDS011;593;53.184;8.216;2022-10-15T10:59:12;25.67;;;19.50;;
1206;SDS011;593;53.184;8.216;2022-10-15T11:01:42;25.73;;;17.70;;
1206;SDS011;593;53.184;8.216;2022-10-15T11:04:09;25.07;;;18.17;;
1206;SDS011;593;53.184;8.216;2022-10-15T11:09:45;24.00;;;18.70;;
1206;SDS011;593;53.184;8.216;2022-10-15T11:20:47;25.03;;;18.07;;
1206;SDS011;593;53.184;8.216;2022-10-15T11:37:03;20.90;;;14.00;;
1206;SDS011;593;53.184;8.216;2022-10-15T11:39:38;18.47;;;14.47;;
1206;SDS011;593;53.184;8.216;2022-10-15T11:42:27;17.57;;;13.93;;
1206;SDS011;593;53.184;8.216;2022-10-15T11:47:58;20.53;;;15.57;;
1206;SDS011;593;53.184;8.216;2022-10-15T11:50:52;18.93;;;14.40;;
1206;SDS011;593;53.184;8.216;2022-10-15T11:56:28;20.40;;;16.10;;
1206;SDS011;593;53.184;8.216;2022-10-15T12:02:02;19.47;;;14.00;;
1206;SDS011;593;53.184;8.216;2022-10-15T12:04:41;19.37;;;14.70;;
1206;SDS011;593;53.184;8.216;2022-10-15T12:07:14;21.33;;;14.53;;
1206;SDS011;593;53.184;8.216;2022-10-15T12:09:52;17.70;;;14.30;;
1206;SDS011;593;53.184;8.216;2022-10-15T12:12:25;21.70;;;15.07;;
1206;SDS011;593;53.184;8.216;2022-10-15T12:17:40;19.13;;;14.50;;
1206;SDS011;593;53.184;8.216;2022-10-15T12:20:16;20.47;;;14.43;;
1206;SDS011;593;53.184;8.216;2022-10-15T12:25:57;26.03;;;16.53;;
1206;SDS011;593;53.184;8.216;2022-10-15T12:30:25;23.70;;;16.43;;
1206;SDS011;593;53.184;8.216;2022-10-15T12:32:53;23.90;;;15.97;;
1206;SDS011;593;53.184;8.216;2022-10-15T12:35:23;23.67;;;17.77;;
1206;SDS011;593;53.184;8.216;2022-10-15T12:37:57;29.23;;;17.77;;
1206;SDS011;593;53.184;8.216;2022-10-15T12:40:35;22.47;;;16.70;;
1206;SDS011;593;53.184;8.216;2022-10-15T12:43:13;23.10;;;15.10;;
1206;SDS011;593;53.184;8.216;2022-10-15T12:45:47;24.30;;;18.60;;
1206;SDS011;593;53.184;8.216;2022-10-15T12:50:40;27.30;;;17.23;;
1206;SDS011;593;53.184;8.216;2022-10-15T12:58:52;26.70;;;16.93;;
1206;SDS011;593;53.184;8.216;2022-10-15T13:08:42;25.80;;;16.73;;
1206;SDS011;593;53.184;8.216;2022-10-15T13:11:18;20.60;;;16.40;;
1206;SDS011;593;53.184;8.216;2022-10-15T13:13:48;20.20;;;14.83;;
1206;SDS011;593;53.184;8.216;2022-10-15T13:16:16;20.03;;;15.40;;
1206;SDS011;593;53.184;8.216;2022-10-15T13:18:46;21.20;;;15.43;;
1206;SDS011;593;53.184;8.216;2022-10-15T13:21:14;21.60;;;16.43;;
1206;SDS011;593;53.184;8.216;2022-10-15T13:23:44;17.97;;;15.40;;
1206;SDS011;593;53.184;8.216;2022-10-15T13:28:45;18.27;;;14.70;;
1206;SDS011;593;53.184;8.216;2022-10-15T13:33:44;18.67;;;15.40;;
1206;SDS011;593;53.184;8.216;2022-10-15T13:36:18;20.63;;;15.70;;
1206;SDS011;593;53.184;8.216;2022-10-15T13:38:50;18.37;;;13.90;;
1206;SDS011;593;53.184;8.216;2022-10-15T13:41:25;21.73;;;15.77;;
1206;SDS011;593;53.184;8.216;2022-10-15T13:43:54;18.50;;;14.97;;
1206;SDS011;593;53.184;8.216;2022-10-15T13:46:23;22.20;;;16.50;;
1206;SDS011;593;53.184;8.216;2022-10-15T13:48:55;19.13;;;15.60;;
1206;SDS011;593;53.184;8.216;2022-10-15T13:51:21;19.37;;;17.30;;
1206;SDS011;593;53.184;8.216;2022-10-15T13:53:47;19.30;;;15.70;;
1206;SDS011;593;53.184;8.216;2022-10-15T13:56:28;20.40;;;16.37;;
1206;SDS011;593;53.184;8.216;2022-10-15T13:58:56;18.70;;;15.33;;
1206;SDS011;593;53.184;8.216;2022-10-15T14:01:25;16.13;;;13.93;;
1206;SDS011;593;53.184;8.216;2022-10-15T14:03:52;18.73;;;14.20;;
1206;SDS011;593;53.184;8.216;2022-10-15T14:06:25;15.93;;;14.20;;
1206;SDS011;593;53.184;8.216;2022-10-15T14:08:55;20.20;;;16.33;;
1206;SDS011;593;53.184;8.216;2022-10-15T14:11:22;18.90;;;16.20;;
1206;SDS011;593;53.184;8.216;2022-10-15T14:13:49;19.40;;;15.30;;
1206;SDS011;593;53.184;8.216;2022-10-15T14:21:30;21.27;;;16.33;;
1206;SDS011;593;53.184;8.216;2022-10-15T14:26:38;20.40;;;16.93;;
1206;SDS011;593;53.184;8.216;2022-10-15T14:29:04;19.83;;;15.60;;
1206;SDS011;593;53.184;8.216;2022-10-15T14:31:35;19.83;;;16.03;;
1206;SDS011;593;53.184;8.216;2022-10-15T14:34:23;17.40;;;14.50;;
1206;SDS011;593;53.184;8.216;2022-10-15T14:36:54;17.50;;;14.70;;
1206;SDS011;593;53.184;8.216;2022-10-15T14:39:38;16.97;;;15.17;;
1206;SDS011;593;53.184;8.216;2022-10-15T14:42:04;18.20;;;15.43;;
1206;SDS011;593;53.184;8.216;2022-10-15T14:44:44;20.03;;;15.90;;
1206;SDS011;593;53.184;8.216;2022-10-15T14:47:14;21.77;;;15.87;;
1206;SDS011;593;53.184;8.216;2022-10-15T14:49:43;19.57;;;16.20;;
1206;SDS011;593;53.184;8.216;2022-10-15T14:52:11;21.80;;;15.20;;
1206;SDS011;593;53.184;8.216;2022-10-15T14:54:41;21.50;;;16.77;;
1206;SDS011;593;53.184;8.216;2022-10-15T14:57:19;20.50;;;16.60;;
1206;SDS011;593;53.184;8.216;2022-10-15T14:59:54;21.47;;;17.13;;
1206;SDS011;593;53.184;8.216;2022-10-15T15:02:22;21.10;;;16.93;;
1206;SDS011;593;53.184;8.216;2022-10-15T15:07:35;20.20;;;16.57;;
1206;SDS011;593;53.184;8.216;2022-10-15T15:10:01;19.77;;;15.47;;
1206;SDS011;593;53.184;8.216;2022-10-15T15:12:28;20.60;;;16.50;;
1206;SDS011;593;53.184;8.216;2022-10-15T15:14:55;18.10;;;14.37;;
1206;SDS011;593;53.184;8.216;2022-10-15T15:17:22;20.37;;;17.20;;
1206;SDS011;593;53.184;8.216;2022-10-15T15:19:49;22.57;;;17.70;;
1206;SDS011;593;53.184;8.216;2022-10-15T15:22:32;20.20;;;14.97;;
1206;SDS011;593;53.184;8.216;2022-10-15T15:24:59;18.10;;;15.33;;
1206;SDS011;593;53.184;8.216;2022-10-15T15:27:28;17.30;;;14.37;;
1206;SDS011;593;53.184;8.216;2022-10-15T15:29:55;17.57;;;13.80;;
1206;SDS011;593;53.184;8.216;2022-10-15T15:32:21;20.23;;;14.97;;
1206;SDS011;593;53.184;8.216;2022-10-15T15:34:48;19.57;;;15.00;;
1206;SDS011;593;53.184;8.216;2022-10-15T15:37:18;17.10;;;13.97;;
1206;SDS011;593;53.184;8.216;2022-10-15T15:39:45;17.80;;;13.83;;
1206;SDS011;593;53.184;8.216;2022-10-15T15:42:15;18.53;;;14.27;;
1206;SDS011;593;53.184;8.216;2022-10-15T15:44:42;16.47;;;13.70;;
1206;SDS011;593;53.184;8.216;2022-10-15T15:47:08;16.47;;;12.57;;
1206;SDS011;593;53.184;8.216;2022-10-15T15:49:34;18.43;;;13.53;;
1206;SDS011;593;53.184;8.216;2022-10-15T15:52:01;15.50;;;12.20;;
1206;SDS011;593;53.184;8.216;2022-10-15T15:54:26;14.97;;;10.90;;
1206;SDS011;593;53.184;8.216;2022-10-15T15:56:52;14.07;;;10.60;;
1206;SDS011;593;53.184;8.216;2022-10-15T15:59:17;13.97;;;11.17;;
1206;SDS011;593;53.184;8.216;2022-10-15T16:01:43;16.80;;;11.57;;
1206;SDS011;593;53.184;8.216;2022-10-15T16:04:10;12.40;;;10.90;;
1206;SDS011;593;53.184;8.216;2022-10-15T16:06:36;13.73;;;9.60;;
1206;SDS011;593;53.184;8.216;2022-10-15T16:09:02;12.43;;;10.43;;
1206;SDS011;593;53.184;8.216;2022-10-15T16:11:29;11.10;;;9.27;;
1206;SDS011;593;53.184;8.216;2022-10-15T16:13:55;10.63;;;8.57;;
1206;SDS011;593;53.184;8.216;2022-10-15T16:16:20;10.50;;;9.30;;
1206;SDS011;593;53.184;8.216;2022-10-15T16:18:45;12.90;;;10.30;;
1206;SDS011;593;53.184;8.216;2022-10-15T16:21:11;11.00;;;9.60;;
1206;SDS011;593;53.184;8.216;2022-10-15T16:23:36;10.40;;;8.20;;
1206;SDS011;593;53.184;8.216;2022-10-15T16:26:01;10.67;;;8.70;;
1206;SDS011;593;53.184;8.216;2022-10-15T16:28:27;9.10;;;7.23;;
1206;SDS011;593;53.184;8.216;2022-10-15T16:30:52;9.33;;;8.50;;
1206;SDS011;593;53.184;8.216;2022-10-15T16:33:17;7.70;;;7.00;;
1206;SDS011;593;53.184;8.216;2022-10-15T16:35:43;8.30;;;7.40;;
1206;SDS011;593;53.184;8.216;2022-10-15T16:38:08;12.60;;;10.67;;
1206;SDS011;593;53.184;8.216;2022-10-15T16:40:33;10.00;;;9.00;;
1206;SDS011;593;53.184;8.216;2022-10-15T16:42:59;8.20;;;7.40;;
1206;SDS011;593;53.184;8.216;2022-10-15T16:45:24;9.80;;;8.80;;
1206;SDS011;593;53.184;8.216;2022-10-15T16:47:50;9.67;;;8.47;;
1206;SDS011;593;53.184;8.216;2022-10-15T16:50:15;7.77;;;7.07;;
1206;SDS011;593;53.184;8.216;2022-10-15T16:52:41;8.97;;;8.07;;
1206;SDS011;593;53.184;8.216;2022-10-15T16:55:06;10.03;;;7.93;;
1206;SDS011;593;53.184;8.216;2022-10-15T16:57:32;7.63;;;6.93;;
1206;SDS011;593;53.184;8.216;2022-10-15T16:59:57;7.40;;;6.70;;
1206;SDS011;593;53.184;8.216;2022-10-15T17:02:22;8.20;;;7.40;;